SKPE/PEI METAR and TAF weather

Enter ICAO airport designator
Station Type Date Time Source
SKPE METAR 2018/12/12 13:00 UTC NOAA

SKPE 121300Z VRB02KT 9999 FEW015 SCT200 22/19 A3010


Station Type Date Time Source
SKPE Decoded METAR 2018/12/12 13:00 UTC NOAA

Pereira / Matecana, Colombia (SKPE) 04-49N 075-44W 1342M
Dec 12, 2018 - 08:00 AM EST / 2018.12.12 1300 UTC
Wind: Variable at 2 MPH (2 KT):0
Visibility: greater than 7 mile(s):0
Sky conditions: partly cloudy
Temperature: 71 F (22 C)
Dew Point: 66 F (19 C)
Relative Humidity: 83%
Pressure (altimeter): 30.1 in. Hg (1019 hPa)
ob: SKPE 121300Z VRB02KT 9999 FEW015 SCT200 22/19 A3010
cycle: 13

Station Type Date Time Source
SKPE TAF 2018/12/12 12:48 UTC NOAA

TAF SKPE 121100Z 1212/1312 08004KT 9999 SCT017 SCT090
TEMPO 1212/1214 5000 BCFG -RA SCT010
BECMG 1214/1216 25010KT
TEMPO 1218/1222 7000 RA SCT015CB
TEMPO 1300/1303 8000 DZ SCT013TCU
TEMPO 1309/1312 4000 BR DZ SCT007 TX27/1219Z TN18/1311Z


Example: see airport list